sensor_id;sensor_type;location;lat;lon;timestamp;pressure;altitude;pressure_sealevel;temperature
71081;BMP180;58740;50.672;18.690;2023-04-21T00:01:49;99202.80;;;9.12
71081;BMP180;58740;50.672;18.690;2023-04-21T00:04:17;99204.80;;;9.10
71081;BMP180;58740;50.672;18.690;2023-04-21T00:06:46;99206.00;;;9.10
71081;BMP180;58740;50.672;18.690;2023-04-21T00:09:14;99201.60;;;9.10
71081;BMP180;58740;50.672;18.690;2023-04-21T00:11:41;99206.00;;;9.10
71081;BMP180;58740;50.672;18.690;2023-04-21T00:14:09;99201.00;;;9.10
71081;BMP180;58740;50.672;18.690;2023-04-21T00:16:37;99201.60;;;9.10
71081;BMP180;58740;50.672;18.690;2023-04-21T00:19:05;99204.40;;;9.10
71081;BMP180;58740;50.672;18.690;2023-04-21T00:21:34;99202.40;;;9.04
71081;BMP180;58740;50.672;18.690;2023-04-21T00:24:02;99194.00;;;9.00
71081;BMP180;58740;50.672;18.690;2023-04-21T00:26:30;99200.00;;;9.00
71081;BMP180;58740;50.672;18.690;2023-04-21T00:28:57;99199.60;;;8.98
71081;BMP180;58740;50.672;18.690;2023-04-21T00:31:25;99195.40;;;8.96
71081;BMP180;58740;50.672;18.690;2023-04-21T00:33:53;99194.60;;;9.00
71081;BMP180;58740;50.672;18.690;2023-04-21T00:36:22;99198.60;;;9.00
71081;BMP180;58740;50.672;18.690;2023-04-21T00:38:51;99199.00;;;9.00
71081;BMP180;58740;50.672;18.690;2023-04-21T00:41:18;99196.20;;;9.10
71081;BMP180;58740;50.672;18.690;2023-04-21T00:44:07;99195.60;;;9.10
71081;BMP180;58740;50.672;18.690;2023-04-21T00:46:35;99193.40;;;9.10
71081;BMP180;58740;50.672;18.690;2023-04-21T00:49:06;99192.80;;;9.06
71081;BMP180;58740;50.672;18.690;2023-04-21T00:51:36;99195.60;;;9.04
71081;BMP180;58740;50.672;18.690;2023-04-21T00:54:06;99193.60;;;9.00
71081;BMP180;58740;50.672;18.690;2023-04-21T00:56:35;99193.60;;;9.00
71081;BMP180;58740;50.672;18.690;2023-04-21T00:59:03;99196.00;;;8.90
71081;BMP180;58740;50.672;18.690;2023-04-21T01:01:31;99190.00;;;8.90
71081;BMP180;58740;50.672;18.690;2023-04-21T01:04:03;99192.40;;;8.90
71081;BMP180;58740;50.672;18.690;2023-04-21T01:06:32;99190.40;;;8.90
71081;BMP180;58740;50.672;18.690;2023-04-21T01:09:03;99188.00;;;8.90
71081;BMP180;58740;50.672;18.690;2023-04-21T01:11:31;99186.40;;;8.90
71081;BMP180;58740;50.672;18.690;2023-04-21T01:13:59;99186.60;;;8.90
71081;BMP180;58740;50.672;18.690;2023-04-21T01:16:27;99181.80;;;8.80
71081;BMP180;58740;50.672;18.690;2023-04-21T01:18:56;99191.00;;;8.80
71081;BMP180;58740;50.672;18.690;2023-04-21T01:21:25;99183.60;;;8.70
71081;BMP180;58740;50.672;18.690;2023-04-21T01:23:54;99188.00;;;8.70
71081;BMP180;58740;50.672;18.690;2023-04-21T01:26:22;99183.20;;;8.70
71081;BMP180;58740;50.672;18.690;2023-04-21T01:28:50;99183.80;;;8.70
71081;BMP180;58740;50.672;18.690;2023-04-21T01:31:17;99188.60;;;8.70
71081;BMP180;58740;50.672;18.690;2023-04-21T01:33:46;99184.20;;;8.70
71081;BMP180;58740;50.672;18.690;2023-04-21T01:36:14;99186.80;;;8.66
71081;BMP180;58740;50.672;18.690;2023-04-21T01:38:42;99182.60;;;8.60
71081;BMP180;58740;50.672;18.690;2023-04-21T01:41:10;99180.80;;;8.60
71081;BMP180;58740;50.672;18.690;2023-04-21T01:43:38;99181.20;;;8.60
71081;BMP180;58740;50.672;18.690;2023-04-21T01:46:05;99182.40;;;8.60
71081;BMP180;58740;50.672;18.690;2023-04-21T01:48:35;99180.20;;;8.60
71081;BMP180;58740;50.672;18.690;2023-04-21T01:51:03;99181.00;;;8.60
71081;BMP180;58740;50.672;18.690;2023-04-21T01:53:31;99181.60;;;8.60
71081;BMP180;58740;50.672;18.690;2023-04-21T01:55:59;99179.80;;;8.50
71081;BMP180;58740;50.672;18.690;2023-04-21T01:58:26;99182.00;;;8.50
71081;BMP180;58740;50.672;18.690;2023-04-21T02:00:54;99179.40;;;8.50
71081;BMP180;58740;50.672;18.690;2023-04-21T02:03:22;99185.80;;;8.40
71081;BMP180;58740;50.672;18.690;2023-04-21T02:05:50;99184.80;;;8.32
71081;BMP180;58740;50.672;18.690;2023-04-21T02:08:17;99185.40;;;8.30
71081;BMP180;58740;50.672;18.690;2023-04-21T02:10:45;99182.60;;;8.20
71081;BMP180;58740;50.672;18.690;2023-04-21T02:13:13;99179.60;;;8.20
71081;BMP180;58740;50.672;18.690;2023-04-21T02:15:40;99177.40;;;8.20
71081;BMP180;58740;50.672;18.690;2023-04-21T02:18:08;99180.20;;;8.10
71081;BMP180;58740;50.672;18.690;2023-04-21T02:20:37;99179.20;;;8.04
71081;BMP180;58740;50.672;18.690;2023-04-21T02:23:05;99173.60;;;8.00
71081;BMP180;58740;50.672;18.690;2023-04-21T02:25:33;99176.80;;;7.92
71081;BMP180;58740;50.672;18.690;2023-04-21T02:28:01;99179.40;;;7.90
71081;BMP180;58740;50.672;18.690;2023-04-21T02:30:29;99183.40;;;7.90
71081;BMP180;58740;50.672;18.690;2023-04-21T02:32:56;99182.20;;;7.82
71081;BMP180;58740;50.672;18.690;2023-04-21T02:35:24;99180.00;;;7.80
71081;BMP180;58740;50.672;18.690;2023-04-21T02:37:52;99183.40;;;7.80
71081;BMP180;58740;50.672;18.690;2023-04-21T02:40:19;99177.20;;;7.80
71081;BMP180;58740;50.672;18.690;2023-04-21T02:42:47;99175.80;;;7.80
71081;BMP180;58740;50.672;18.690;2023-04-21T02:45:15;99184.60;;;7.80
71081;BMP180;58740;50.672;18.690;2023-04-21T02:47:43;99183.00;;;7.90
71081;BMP180;58740;50.672;18.690;2023-04-21T02:50:12;99188.00;;;7.90
71081;BMP180;58740;50.672;18.690;2023-04-21T02:52:40;99186.00;;;7.90
71081;BMP180;58740;50.672;18.690;2023-04-21T02:55:08;99181.00;;;7.90
71081;BMP180;58740;50.672;18.690;2023-04-21T02:57:36;99184.20;;;7.84
71081;BMP180;58740;50.672;18.690;2023-04-21T03:00:04;99184.40;;;7.90
71081;BMP180;58740;50.672;18.690;2023-04-21T03:02:33;99191.20;;;7.80
71081;BMP180;58740;50.672;18.690;2023-04-21T03:05:02;99180.80;;;7.80
71081;BMP180;58740;50.672;18.690;2023-04-21T03:07:31;99179.00;;;7.80
71081;BMP180;58740;50.672;18.690;2023-04-21T03:09:59;99181.20;;;7.80
71081;BMP180;58740;50.672;18.690;2023-04-21T03:12:26;99177.00;;;7.80
71081;BMP180;58740;50.672;18.690;2023-04-21T03:14:54;99176.40;;;7.80
71081;BMP180;58740;50.672;18.690;2023-04-21T03:17:22;99175.40;;;7.80
71081;BMP180;58740;50.672;18.690;2023-04-21T03:19:50;99183.00;;;7.80
71081;BMP180;58740;50.672;18.690;2023-04-21T03:22:17;99173.80;;;7.72
71081;BMP180;58740;50.672;18.690;2023-04-21T03:24:45;99178.60;;;7.70
71081;BMP180;58740;50.672;18.690;2023-04-21T03:27:13;99176.60;;;7.70
71081;BMP180;58740;50.672;18.690;2023-04-21T03:29:40;99179.60;;;7.70
71081;BMP180;58740;50.672;18.690;2023-04-21T03:32:08;99171.80;;;7.62
71081;BMP180;58740;50.672;18.690;2023-04-21T03:34:36;99176.40;;;7.60
71081;BMP180;58740;50.672;18.690;2023-04-21T03:37:04;99175.80;;;7.60
71081;BMP180;58740;50.672;18.690;2023-04-21T03:39:31;99182.20;;;7.52
71081;BMP180;58740;50.672;18.690;2023-04-21T03:41:59;99179.00;;;7.50
71081;BMP180;58740;50.672;18.690;2023-04-21T03:44:27;99177.60;;;7.50
71081;BMP180;58740;50.672;18.690;2023-04-21T03:46:55;99172.00;;;7.40
71081;BMP180;58740;50.672;18.690;2023-04-21T03:49:24;99175.40;;;7.40
71081;BMP180;58740;50.672;18.690;2023-04-21T03:51:51;99176.40;;;7.40
71081;BMP180;58740;50.672;18.690;2023-04-21T03:54:19;99185.60;;;7.40
71081;BMP180;58740;50.672;18.690;2023-04-21T03:56:47;99184.40;;;7.40
71081;BMP180;58740;50.672;18.690;2023-04-21T03:59:14;99188.40;;;7.38
71081;BMP180;58740;50.672;18.690;2023-04-21T04:01:42;99188.20;;;7.30
71081;BMP180;58740;50.672;18.690;2023-04-21T04:04:09;99185.40;;;7.40
71081;BMP180;58740;50.672;18.690;2023-04-21T04:06:37;99189.80;;;7.40
71081;BMP180;58740;50.672;18.690;2023-04-21T04:09:05;99190.00;;;7.48
71081;BMP180;58740;50.672;18.690;2023-04-21T04:11:35;99190.20;;;7.50
71081;BMP180;58740;50.672;18.690;2023-04-21T04:14:02;99196.80;;;7.50
71081;BMP180;58740;50.672;18.690;2023-04-21T04:16:33;99196.60;;;7.50
71081;BMP180;58740;50.672;18.690;2023-04-21T04:19:00;99202.60;;;7.50
71081;BMP180;58740;50.672;18.690;2023-04-21T04:21:28;99210.00;;;7.44
71081;BMP180;58740;50.672;18.690;2023-04-21T04:23:56;99208.80;;;7.42
71081;BMP180;58740;50.672;18.690;2023-04-21T04:26:25;99204.80;;;7.48
71081;BMP180;58740;50.672;18.690;2023-04-21T04:28:54;99209.60;;;7.50
71081;BMP180;58740;50.672;18.690;2023-04-21T04:31:23;99209.40;;;7.50
71081;BMP180;58740;50.672;18.690;2023-04-21T04:33:52;99212.80;;;7.50
71081;BMP180;58740;50.672;18.690;2023-04-21T04:36:23;99214.40;;;7.50
71081;BMP180;58740;50.672;18.690;2023-04-21T04:38:51;99221.60;;;7.58
71081;BMP180;58740;50.672;18.690;2023-04-21T04:41:19;99217.80;;;7.60
71081;BMP180;58740;50.672;18.690;2023-04-21T04:43:47;99216.20;;;7.70
71081;BMP180;58740;50.672;18.690;2023-04-21T04:46:15;99218.40;;;7.80
71081;BMP180;58740;50.672;18.690;2023-04-21T04:48:43;99222.80;;;7.90
71081;BMP180;58740;50.672;18.690;2023-04-21T04:51:11;99221.00;;;8.00
71081;BMP180;58740;50.672;18.690;2023-04-21T04:53:39;99213.40;;;8.10
71081;BMP180;58740;50.672;18.690;2023-04-21T04:56:06;99215.40;;;8.20
71081;BMP180;58740;50.672;18.690;2023-04-21T04:58:34;99214.20;;;8.30
71081;BMP180;58740;50.672;18.690;2023-04-21T05:01:15;99217.20;;;8.40
71081;BMP180;58740;50.672;18.690;2023-04-21T05:03:45;99218.80;;;8.50
71081;BMP180;58740;50.672;18.690;2023-04-21T05:06:13;99219.00;;;8.50
71081;BMP180;58740;50.672;18.690;2023-04-21T05:08:41;99219.00;;;8.60
71081;BMP180;58740;50.672;18.690;2023-04-21T05:11:08;99213.20;;;8.70
71081;BMP180;58740;50.672;18.690;2023-04-21T05:13:36;99214.40;;;8.70
71081;BMP180;58740;50.672;18.690;2023-04-21T05:16:07;99216.20;;;8.80
71081;BMP180;58740;50.672;18.690;2023-04-21T05:18:36;99213.20;;;8.90
71081;BMP180;58740;50.672;18.690;2023-04-21T05:21:04;99212.60;;;8.90
71081;BMP180;58740;50.672;18.690;2023-04-21T05:23:32;99210.00;;;9.00
71081;BMP180;58740;50.672;18.690;2023-04-21T05:26:00;99212.60;;;9.10
71081;BMP180;58740;50.672;18.690;2023-04-21T05:28:31;99209.60;;;9.20
71081;BMP180;58740;50.672;18.690;2023-04-21T05:30:58;99208.20;;;9.30
71081;BMP180;58740;50.672;18.690;2023-04-21T05:33:26;99209.20;;;9.32
71081;BMP180;58740;50.672;18.690;2023-04-21T05:35:54;99207.60;;;9.42
71081;BMP180;58740;50.672;18.690;2023-04-21T05:38:22;99212.20;;;9.50
71081;BMP180;58740;50.672;18.690;2023-04-21T05:40:54;99209.20;;;9.60
71081;BMP180;58740;50.672;18.690;2023-04-21T05:43:23;99202.60;;;9.72
71081;BMP180;58740;50.672;18.690;2023-04-21T05:45:50;99208.40;;;9.82
71081;BMP180;58740;50.672;18.690;2023-04-21T05:48:18;99207.40;;;9.94
71081;BMP180;58740;50.672;18.690;2023-04-21T05:50:46;99205.20;;;10.02
71081;BMP180;58740;50.672;18.690;2023-04-21T05:53:14;99205.60;;;10.10
71081;BMP180;58740;50.672;18.690;2023-04-21T05:55:41;99207.40;;;10.26
71081;BMP180;58740;50.672;18.690;2023-04-21T05:58:09;99213.20;;;10.40
71081;BMP180;58740;50.672;18.690;2023-04-21T06:00:37;99211.80;;;10.50
71081;BMP180;58740;50.672;18.690;2023-04-21T06:03:05;99209.40;;;10.60
71081;BMP180;58740;50.672;18.690;2023-04-21T06:05:33;99210.20;;;10.70
71081;BMP180;58740;50.672;18.690;2023-04-21T06:08:01;99204.80;;;10.86
71081;BMP180;58740;50.672;18.690;2023-04-21T06:10:29;99198.20;;;10.98
71081;BMP180;58740;50.672;18.690;2023-04-21T06:12:57;99197.00;;;11.08
71081;BMP180;58740;50.672;18.690;2023-04-21T06:15:25;99198.00;;;11.20
71081;BMP180;58740;50.672;18.690;2023-04-21T06:17:53;99193.00;;;11.28
71081;BMP180;58740;50.672;18.690;2023-04-21T06:20:23;99193.40;;;11.40
71081;BMP180;58740;50.672;18.690;2023-04-21T06:22:51;99193.60;;;11.46
71081;BMP180;58740;50.672;18.690;2023-04-21T06:25:18;99192.40;;;11.60
71081;BMP180;58740;50.672;18.690;2023-04-21T06:27:46;99188.40;;;11.70
71081;BMP180;58740;50.672;18.690;2023-04-21T06:30:14;99196.60;;;11.80
71081;BMP180;58740;50.672;18.690;2023-04-21T06:32:42;99197.80;;;11.90
71081;BMP180;58740;50.672;18.690;2023-04-21T06:35:13;99190.80;;;12.00
71081;BMP180;58740;50.672;18.690;2023-04-21T06:37:41;99186.80;;;12.10
71081;BMP180;58740;50.672;18.690;2023-04-21T06:40:09;99188.00;;;12.20
71081;BMP180;58740;50.672;18.690;2023-04-21T06:42:39;99188.00;;;12.30
71081;BMP180;58740;50.672;18.690;2023-04-21T06:45:07;99180.20;;;12.36
71081;BMP180;58740;50.672;18.690;2023-04-21T06:47:35;99181.40;;;12.46
71081;BMP180;58740;50.672;18.690;2023-04-21T06:50:03;99189.40;;;12.60
71081;BMP180;58740;50.672;18.690;2023-04-21T06:52:31;99182.00;;;12.70
71081;BMP180;58740;50.672;18.690;2023-04-21T06:54:59;99178.60;;;12.80
71081;BMP180;58740;50.672;18.690;2023-04-21T06:57:26;99181.60;;;12.90
71081;BMP180;58740;50.672;18.690;2023-04-21T06:59:54;99182.60;;;12.94
71081;BMP180;58740;50.672;18.690;2023-04-21T07:02:22;99186.20;;;13.04
71081;BMP180;58740;50.672;18.690;2023-04-21T07:04:50;99179.00;;;13.20
71081;BMP180;58740;50.672;18.690;2023-04-21T07:07:18;99182.60;;;13.28
71081;BMP180;58740;50.672;18.690;2023-04-21T07:09:46;99185.00;;;13.32
71081;BMP180;58740;50.672;18.690;2023-04-21T07:12:14;99186.20;;;13.42
71081;BMP180;58740;50.672;18.690;2023-04-21T07:14:42;99184.00;;;13.50
71081;BMP180;58740;50.672;18.690;2023-04-21T07:17:10;99185.20;;;13.60
71081;BMP180;58740;50.672;18.690;2023-04-21T07:19:38;99185.40;;;13.70
71081;BMP180;58740;50.672;18.690;2023-04-21T07:22:06;99186.60;;;13.74
71081;BMP180;58740;50.672;18.690;2023-04-21T07:24:33;99182.40;;;13.80
71081;BMP180;58740;50.672;18.690;2023-04-21T07:27:02;99182.60;;;13.90
71081;BMP180;58740;50.672;18.690;2023-04-21T07:29:30;99179.00;;;13.92
71081;BMP180;58740;50.672;18.690;2023-04-21T07:31:58;99177.00;;;14.08
71081;BMP180;58740;50.672;18.690;2023-04-21T07:34:25;99180.60;;;14.12
71081;BMP180;58740;50.672;18.690;2023-04-21T07:36:55;99176.00;;;14.20
71081;BMP180;58740;50.672;18.690;2023-04-21T07:39:22;99175.20;;;14.30
71081;BMP180;58740;50.672;18.690;2023-04-21T07:41:50;99175.00;;;14.38
71081;BMP180;58740;50.672;18.690;2023-04-21T07:44:18;99179.00;;;14.40
71081;BMP180;58740;50.672;18.690;2023-04-21T07:46:46;99176.80;;;14.50
71081;BMP180;58740;50.672;18.690;2023-04-21T07:49:13;99179.00;;;14.60
71081;BMP180;58740;50.672;18.690;2023-04-21T07:51:42;99178.00;;;14.60
71081;BMP180;58740;50.672;18.690;2023-04-21T07:54:09;99171.20;;;14.70
71081;BMP180;58740;50.672;18.690;2023-04-21T07:56:38;99173.00;;;14.76
71081;BMP180;58740;50.672;18.690;2023-04-21T07:59:06;99166.40;;;14.80
71081;BMP180;58740;50.672;18.690;2023-04-21T08:01:34;99167.80;;;14.90
71081;BMP180;58740;50.672;18.690;2023-04-21T08:04:02;99163.20;;;14.92
71081;BMP180;58740;50.672;18.690;2023-04-21T08:06:29;99162.40;;;15.00
71081;BMP180;58740;50.672;18.690;2023-04-21T08:09:00;99159.40;;;15.10
71081;BMP180;58740;50.672;18.690;2023-04-21T08:11:27;99164.40;;;15.20
71081;BMP180;58740;50.672;18.690;2023-04-21T08:13:55;99164.80;;;15.26
71081;BMP180;58740;50.672;18.690;2023-04-21T08:16:24;99164.80;;;15.36
71081;BMP180;58740;50.672;18.690;2023-04-21T08:18:52;99165.60;;;15.40
71081;BMP180;58740;50.672;18.690;2023-04-21T08:21:19;99156.60;;;15.50
71081;BMP180;58740;50.672;18.690;2023-04-21T08:23:47;99157.60;;;15.54
71081;BMP180;58740;50.672;18.690;2023-04-21T08:26:14;99161.40;;;15.60
71081;BMP180;58740;50.672;18.690;2023-04-21T08:28:42;99155.80;;;15.70
71081;BMP180;58740;50.672;18.690;2023-04-21T08:31:10;99155.00;;;15.80
71081;BMP180;58740;50.672;18.690;2023-04-21T08:33:37;99156.60;;;15.90
71081;BMP180;58740;50.672;18.690;2023-04-21T08:36:20;99152.40;;;15.90
71081;BMP180;58740;50.672;18.690;2023-04-21T08:38:56;99154.00;;;16.00
71081;BMP180;58740;50.672;18.690;2023-04-21T08:41:25;99154.80;;;16.00
71081;BMP180;58740;50.672;18.690;2023-04-21T08:43:53;99151.40;;;16.10
71081;BMP180;58740;50.672;18.690;2023-04-21T08:46:22;99148.60;;;16.10
71081;BMP180;58740;50.672;18.690;2023-04-21T08:48:51;99144.80;;;16.10
71081;BMP180;58740;50.672;18.690;2023-04-21T08:51:22;99143.00;;;16.18
71081;BMP180;58740;50.672;18.690;2023-04-21T08:53:54;99150.60;;;16.20
71081;BMP180;58740;50.672;18.690;2023-04-21T08:56:25;99145.00;;;16.20
71081;BMP180;58740;50.672;18.690;2023-04-21T08:58:53;99145.60;;;16.20
71081;BMP180;58740;50.672;18.690;2023-04-21T09:01:21;99135.40;;;16.10
71081;BMP180;58740;50.672;18.690;2023-04-21T09:03:49;99133.40;;;16.00
71081;BMP180;58740;50.672;18.690;2023-04-21T09:06:17;99135.60;;;15.90
71081;BMP180;58740;50.672;18.690;2023-04-21T09:08:53;99133.20;;;15.90
71081;BMP180;58740;50.672;18.690;2023-04-21T09:11:22;99118.00;;;15.90
71081;BMP180;58740;50.672;18.690;2023-04-21T09:13:50;99120.60;;;16.00
71081;BMP180;58740;50.672;18.690;2023-04-21T09:16:20;99123.20;;;16.10
71081;BMP180;58740;50.672;18.690;2023-04-21T09:18:49;99126.00;;;16.20
71081;BMP180;58740;50.672;18.690;2023-04-21T09:21:19;99124.00;;;16.20
71081;BMP180;58740;50.672;18.690;2023-04-21T09:23:51;99116.60;;;16.30
71081;BMP180;58740;50.672;18.690;2023-04-21T09:26:20;99115.00;;;16.40
71081;BMP180;58740;50.672;18.690;2023-04-21T09:28:52;99112.40;;;16.50
71081;BMP180;58740;50.672;18.690;2023-04-21T09:31:23;99116.00;;;16.60
71081;BMP180;58740;50.672;18.690;2023-04-21T09:33:56;99099.80;;;16.70
71081;BMP180;58740;50.672;18.690;2023-04-21T09:36:29;99103.20;;;16.70
71081;BMP180;58740;50.672;18.690;2023-04-21T09:39:01;99103.60;;;16.78
71081;BMP180;58740;50.672;18.690;2023-04-21T09:41:33;99107.40;;;16.80
71081;BMP180;58740;50.672;18.690;2023-04-21T09:44:00;99111.60;;;16.90
71081;BMP180;58740;50.672;18.690;2023-04-21T09:46:35;99100.40;;;16.96
71081;BMP180;58740;50.672;18.690;2023-04-21T09:49:03;99092.40;;;17.00
71081;BMP180;58740;50.672;18.690;2023-04-21T09:51:33;99093.20;;;17.00
71081;BMP180;58740;50.672;18.690;2023-04-21T09:54:18;99096.60;;;17.00
71081;BMP180;58740;50.672;18.690;2023-04-21T09:56:52;99092.60;;;17.00
71081;BMP180;58740;50.672;18.690;2023-04-21T09:59:26;99098.80;;;17.00
71081;BMP180;58740;50.672;18.690;2023-04-21T10:01:58;99103.20;;;17.00
71081;BMP180;58740;50.672;18.690;2023-04-21T10:04:30;99093.60;;;16.92
71081;BMP180;58740;50.672;18.690;2023-04-21T10:06:59;99090.40;;;17.00
71081;BMP180;58740;50.672;18.690;2023-04-21T10:09:37;99079.40;;;17.00
71081;BMP180;58740;50.672;18.690;2023-04-21T10:12:08;99082.20;;;17.10
71081;BMP180;58740;50.672;18.690;2023-04-21T10:14:36;99077.80;;;17.20
71081;BMP180;58740;50.672;18.690;2023-04-21T10:17:07;99079.80;;;17.20
71081;BMP180;58740;50.672;18.690;2023-04-21T10:19:46;99085.80;;;17.20
71081;BMP180;58740;50.672;18.690;2023-04-21T10:22:26;99074.20;;;17.20
71081;BMP180;58740;50.672;18.690;2023-04-21T10:24:57;99083.80;;;17.20
71081;BMP180;58740;50.672;18.690;2023-04-21T10:27:39;99082.60;;;17.26
71081;BMP180;58740;50.672;18.690;2023-04-21T10:30:24;99085.00;;;17.30
71081;BMP180;58740;50.672;18.690;2023-04-21T10:33:03;99080.80;;;17.30
71081;BMP180;58740;50.672;18.690;2023-04-21T10:36:01;99071.00;;;17.30
71081;BMP180;58740;50.672;18.690;2023-04-21T10:38:42;99078.80;;;17.28
71081;BMP180;58740;50.672;18.690;2023-04-21T10:41:31;99083.40;;;17.30
71081;BMP180;58740;50.672;18.690;2023-04-21T10:44:01;99080.80;;;17.26
71081;BMP180;58740;50.672;18.690;2023-04-21T10:46:49;99081.20;;;17.30
71081;BMP180;58740;50.672;18.690;2023-04-21T10:49:29;99084.00;;;17.30
71081;BMP180;58740;50.672;18.690;2023-04-21T10:54:41;99069.60;;;17.40
71081;BMP180;58740;50.672;18.690;2023-04-21T10:57:13;99064.40;;;17.40
71081;BMP180;58740;50.672;18.690;2023-04-21T10:59:42;99057.40;;;17.40
71081;BMP180;58740;50.672;18.690;2023-04-21T11:02:13;99060.00;;;17.40
71081;BMP180;58740;50.672;18.690;2023-04-21T11:04:41;99063.60;;;17.40
71081;BMP180;58740;50.672;18.690;2023-04-21T11:07:19;99063.40;;;17.40
71081;BMP180;58740;50.672;18.690;2023-04-21T11:09:55;99055.60;;;17.30
71081;BMP180;58740;50.672;18.690;2023-04-21T11:12:28;99060.20;;;17.24
71081;BMP180;58740;50.672;18.690;2023-04-21T11:14:57;99056.80;;;17.20
71081;BMP180;58740;50.672;18.690;2023-04-21T11:17:25;99057.60;;;17.20
71081;BMP180;58740;50.672;18.690;2023-04-21T11:19:55;99048.00;;;17.20
71081;BMP180;58740;50.672;18.690;2023-04-21T11:22:25;99038.60;;;17.10
71081;BMP180;58740;50.672;18.690;2023-04-21T11:24:56;99040.80;;;17.00
71081;BMP180;58740;50.672;18.690;2023-04-21T11:27:27;99041.20;;;17.10
71081;BMP180;58740;50.672;18.690;2023-04-21T11:30:02;99046.80;;;17.10
71081;BMP180;58740;50.672;18.690;2023-04-21T11:32:30;99041.40;;;17.20
71081;BMP180;58740;50.672;18.690;2023-04-21T11:34:58;99037.00;;;17.20
71081;BMP180;58740;50.672;18.690;2023-04-21T11:37:26;99036.40;;;17.20
71081;BMP180;58740;50.672;18.690;2023-04-21T11:39:59;99039.00;;;17.30
71081;BMP180;58740;50.672;18.690;2023-04-21T11:42:28;99038.60;;;17.30
71081;BMP180;58740;50.672;18.690;2023-04-21T11:44:56;99039.20;;;17.40
71081;BMP180;58740;50.672;18.690;2023-04-21T11:47:27;99032.00;;;17.40
71081;BMP180;58740;50.672;18.690;2023-04-21T11:49:57;99032.60;;;17.30
71081;BMP180;58740;50.672;18.690;2023-04-21T11:52:27;99030.00;;;17.30
71081;BMP180;58740;50.672;18.690;2023-04-21T11:55:11;99022.40;;;17.28
71081;BMP180;58740;50.672;18.690;2023-04-21T11:57:40;99023.40;;;17.30
71081;BMP180;58740;50.672;18.690;2023-04-21T12:00:11;99028.00;;;17.30
71081;BMP180;58740;50.672;18.690;2023-04-21T12:02:43;99024.20;;;17.40
71081;BMP180;58740;50.672;18.690;2023-04-21T12:05:12;99023.60;;;17.50
71081;BMP180;58740;50.672;18.690;2023-04-21T12:07:43;99025.40;;;17.50
71081;BMP180;58740;50.672;18.690;2023-04-21T12:10:15;99021.00;;;17.50
71081;BMP180;58740;50.672;18.690;2023-04-21T12:12:44;99023.60;;;17.40
71081;BMP180;58740;50.672;18.690;2023-04-21T12:15:20;99022.60;;;17.40
71081;BMP180;58740;50.672;18.690;2023-04-21T12:17:53;99022.80;;;17.30
71081;BMP180;58740;50.672;18.690;2023-04-21T12:20:24;99020.20;;;17.20
71081;BMP180;58740;50.672;18.690;2023-04-21T12:22:53;99012.00;;;17.10
71081;BMP180;58740;50.672;18.690;2023-04-21T12:25:21;99005.20;;;17.10
71081;BMP180;58740;50.672;18.690;2023-04-21T12:27:57;99004.00;;;17.10
71081;BMP180;58740;50.672;18.690;2023-04-21T12:30:25;99006.00;;;17.20
71081;BMP180;58740;50.672;18.690;2023-04-21T12:32:53;99001.00;;;17.20
71081;BMP180;58740;50.672;18.690;2023-04-21T12:35:22;98997.00;;;17.30
71081;BMP180;58740;50.672;18.690;2023-04-21T12:37:50;98994.60;;;17.30
71081;BMP180;58740;50.672;18.690;2023-04-21T12:40:18;98996.00;;;17.30
71081;BMP180;58740;50.672;18.690;2023-04-21T12:42:46;98995.40;;;17.40
71081;BMP180;58740;50.672;18.690;2023-04-21T12:45:15;99002.20;;;17.30
71081;BMP180;58740;50.672;18.690;2023-04-21T12:47:43;98997.80;;;17.40
71081;BMP180;58740;50.672;18.690;2023-04-21T12:50:14;98989.80;;;17.40
71081;BMP180;58740;50.672;18.690;2023-04-21T12:52:42;98990.20;;;17.40
71081;BMP180;58740;50.672;18.690;2023-04-21T12:55:10;98984.80;;;17.40
71081;BMP180;58740;50.672;18.690;2023-04-21T12:57:40;98986.60;;;17.46
71081;BMP180;58740;50.672;18.690;2023-04-21T13:00:08;98981.20;;;17.50
71081;BMP180;58740;50.672;18.690;2023-04-21T13:02:40;98976.80;;;17.50
71081;BMP180;58740;50.672;18.690;2023-04-21T13:05:08;98973.80;;;17.50
71081;BMP180;58740;50.672;18.690;2023-04-21T13:07:39;98974.60;;;17.40
71081;BMP180;58740;50.672;18.690;2023-04-21T13:10:08;98978.60;;;17.40
71081;BMP180;58740;50.672;18.690;2023-04-21T13:12:36;98970.00;;;17.40
71081;BMP180;58740;50.672;18.690;2023-04-21T13:15:05;98971.00;;;17.40
71081;BMP180;58740;50.672;18.690;2023-04-21T13:17:33;98976.00;;;17.40
71081;BMP180;58740;50.672;18.690;2023-04-21T13:20:00;98973.40;;;17.40
71081;BMP180;58740;50.672;18.690;2023-04-21T13:22:28;98966.00;;;17.40
71081;BMP180;58740;50.672;18.690;2023-04-21T13:24:56;98971.40;;;17.40
71081;BMP180;58740;50.672;18.690;2023-04-21T13:27:24;98970.80;;;17.40
71081;BMP180;58740;50.672;18.690;2023-04-21T13:29:52;98970.80;;;17.40
71081;BMP180;58740;50.672;18.690;2023-04-21T13:32:20;98968.60;;;17.40
71081;BMP180;58740;50.672;18.690;2023-04-21T13:34:48;98963.40;;;17.30
71081;BMP180;58740;50.672;18.690;2023-04-21T13:37:16;98967.40;;;17.30
71081;BMP180;58740;50.672;18.690;2023-04-21T13:39:44;98956.00;;;17.30
71081;BMP180;58740;50.672;18.690;2023-04-21T13:42:11;98949.40;;;17.30
71081;BMP180;58740;50.672;18.690;2023-04-21T13:44:39;98943.80;;;17.28
71081;BMP180;58740;50.672;18.690;2023-04-21T13:47:07;98945.00;;;17.20
71081;BMP180;58740;50.672;18.690;2023-04-21T13:49:35;98947.20;;;17.30
71081;BMP180;58740;50.672;18.690;2023-04-21T13:52:03;98945.60;;;17.30
71081;BMP180;58740;50.672;18.690;2023-04-21T13:54:31;98940.40;;;17.30
71081;BMP180;58740;50.672;18.690;2023-04-21T13:56:59;98940.20;;;17.30
71081;BMP180;58740;50.672;18.690;2023-04-21T13:59:27;98944.00;;;17.30
71081;BMP180;58740;50.672;18.690;2023-04-21T14:01:55;98937.00;;;17.30
71081;BMP180;58740;50.672;18.690;2023-04-21T14:04:23;98931.40;;;17.20
71081;BMP180;58740;50.672;18.690;2023-04-21T14:06:51;98930.00;;;17.20
71081;BMP180;58740;50.672;18.690;2023-04-21T14:09:19;98924.00;;;17.10
71081;BMP180;58740;50.672;18.690;2023-04-21T14:11:47;98923.60;;;17.10
71081;BMP180;58740;50.672;18.690;2023-04-21T14:14:15;98923.00;;;17.10
71081;BMP180;58740;50.672;18.690;2023-04-21T14:16:58;98926.40;;;17.10